Time;durP1;ratioP1;P1;durP2;ratioP2;P2;SDS_P1;SDS_P2;PMS_P1;PMS_P2;Temp;Humidity;BMP_temperature;BMP_pressure;BME280_temperature;BME280_humidity;BME280_pressure;Samples;Min_cycle;Max_cycle;Signal;HPM_P1;HPM_P2
2023/01/22 00:04:05;;;;;;;11.08;6.62;;;;;;;0.47;100.00;101741.07;5137411;56;1136649;-75
2023/01/22 00:09:11;;;;;;;13.07;7.03;;;;;;;0.48;100.00;101747.14;5015319;58;1138948;-72
2023/01/22 00:14:18;;;;;;;11.60;6.35;;;;;;;0.49;100.00;101742.35;5117592;56;1138788;-75
2023/01/22 00:19:24;;;;;;;13.48;7.30;;;;;;;0.49;100.00;101746.25;4996510;57;1138699;-71
2023/01/22 00:24:29;;;;;;;12.20;7.80;;;;;;;0.49;100.00;101754.06;5051466;57;1138914;-66
2023/01/22 00:29:35;;;;;;;15.53;8.23;;;;;;;0.50;100.00;101751.87;5072437;56;1138851;-73
2023/01/22 00:34:40;;;;;;;14.53;7.43;;;;;;;0.50;100.00;101757.95;5052252;57;1138789;-73
2023/01/22 00:39:46;;;;;;;12.20;6.80;;;;;;;0.50;100.00;101760.98;4997662;57;1139027;-75
2023/01/22 00:44:52;;;;;;;14.53;7.17;;;;;;;0.50;100.00;101760.98;5112505;56;1139081;-71
2023/01/22 00:49:59;;;;;;;11.13;6.80;;;;;;;0.49;100.00;101764.03;4918794;58;1138889;-71
2023/01/22 00:55:06;;;;;;;12.83;7.17;;;;;;;0.50;100.00;101760.55;4919060;58;1138901;-70
2023/01/22 01:00:16;;;;;;;9.27;5.67;;;;;;;0.51;100.00;101767.91;4938330;58;1138651;-75
2023/01/22 01:05:22;;;;;;;10.40;6.20;;;;;;;0.52;100.00;101761.83;5013787;56;1136605;-77
2023/01/22 01:10:29;;;;;;;14.30;7.55;;;;;;;0.52;100.00;101771.80;5057733;56;1138827;-73
2023/01/22 01:15:35;;;;;;;9.30;5.40;;;;;;;0.48;100.00;101767.52;5027465;57;1139567;-66
2023/01/22 01:20:42;;;;;;;11.10;5.80;;;;;;;0.51;100.00;101779.63;5019458;57;1136980;-76
2023/01/22 01:25:47;;;;;;;11.23;6.23;;;;;;;0.50;100.00;101781.37;5007272;57;1138797;-73
2023/01/22 01:30:53;;;;;;;10.90;6.60;;;;;;;0.52;100.00;101780.05;5027322;57;1138812;-74
2023/01/22 01:36:05;;;;;;;13.57;6.53;;;;;;;0.52;100.00;101781.34;5008549;56;1169635;-68
2023/01/22 01:41:15;;;;;;;14.70;6.90;;;;;;;0.54;100.00;101767.44;4998023;57;1138843;-70
2023/01/22 01:46:25;;;;;;;9.83;5.97;;;;;;;0.58;100.00;101768.25;5197530;55;1225906;-66
2023/01/22 01:51:35;;;;;;;9.80;5.83;;;;;;;0.56;100.00;101776.08;5183183;55;1136672;-71
2023/01/22 01:56:45;;;;;;;13.37;6.73;;;;;;;0.55;100.00;101782.61;5182158;55;1136796;-74
2023/01/22 02:01:54;;;;;;;12.55;6.75;;;;;;;0.54;100.00;101775.68;5180394;55;1138848;-72
2023/01/22 02:07:00;;;;;;;10.27;7.03;;;;;;;0.52;100.00;101780.91;5154724;55;1138589;-69
2023/01/22 02:12:07;;;;;;;9.47;5.33;;;;;;;0.56;100.00;101781.73;5164778;55;1138842;-72
2023/01/22 02:17:18;;;;;;;15.17;8.20;;;;;;;0.58;100.00;101791.67;5181846;55;1136740;-70
2023/01/22 02:22:29;;;;;;;10.90;7.53;;;;;;;0.55;100.00;101796.92;5146592;55;1138925;-70
2023/01/22 02:27:37;;;;;;;14.98;7.47;;;;;;;0.55;100.00;101800.83;5137107;56;1138884;-71
2023/01/22 02:32:43;;;;;;;12.30;6.37;;;;;;;0.53;100.00;101802.59;5116654;56;1138798;-71
2023/01/22 02:37:51;;;;;;;15.50;7.93;;;;;;;0.56;100.00;101803.41;5154084;55;1138810;-68
2023/01/22 02:42:59;;;;;;;10.57;6.97;;;;;;;0.54;100.00;101792.60;5050326;57;1138621;-68
2023/01/22 02:48:06;;;;;;;13.70;7.90;;;;;;;0.59;100.00;101804.67;5192658;55;1139131;-65
2023/01/22 02:53:14;;;;;;;11.53;7.47;;;;;;;0.55;100.00;101805.59;5030983;57;1138819;-71
2023/01/22 02:58:21;;;;;;;14.85;7.22;;;;;;;0.51;100.00;101809.56;5219072;55;1138940;-71
2023/01/22 03:03:27;;;;;;;14.98;7.83;;;;;;;0.49;100.00;101813.48;5015916;57;1139333;-74
2023/01/22 03:08:33;;;;;;;12.30;7.45;;;;;;;0.44;100.00;101810.55;5081413;57;1138831;-75
2023/01/22 03:24:27;;;;;;;15.18;7.92;;;;;;;0.45;100.00;101833.96;4926106;58;1138785;-74
2023/01/22 03:29:37;;;;;;;25.23;11.50;;;;;;;0.46;100.00;101825.71;4970788;57;1245853;-71
2023/01/22 03:34:42;;;;;;;13.17;7.73;;;;;;;0.45;100.00;101835.70;5018121;57;1140836;-65
2023/01/22 03:39:48;;;;;;;13.60;7.37;;;;;;;0.47;100.00;101845.18;4933423;57;1139087;-67
2023/01/22 03:44:55;;;;;;;19.23;9.20;;;;;;;0.48;100.00;101849.95;5028478;57;1138902;-72
2023/01/22 03:50:03;;;;;;;15.77;8.10;;;;;;;0.46;100.00;101842.16;5223878;55;1139631;-72
2023/01/22 03:55:09;;;;;;;15.50;7.87;;;;;;;0.48;100.00;101843.00;5028858;56;1255698;-74
2023/01/22 04:00:15;;;;;;;18.77;8.87;;;;;;;0.49;100.00;101844.72;5164542;55;1250788;-71
2023/01/22 04:05:21;;;;;;;11.37;7.23;;;;;;;0.50;100.00;101839.94;5114581;56;1256225;-70
2023/01/22 04:10:28;;;;;;;10.97;7.20;;;;;;;0.52;100.00;101843.37;5137410;56;1148162;-75
2023/01/22 04:15:34;;;;;;;11.33;7.55;;;;;;;0.55;100.00;101851.59;5117158;56;1139541;-73
2023/01/22 04:20:42;;;;;;;10.35;6.85;;;;;;;0.57;100.00;101857.19;5134735;55;1138809;-74
2023/01/22 04:26:04;;;;;;;9.43;6.43;;;;;;;0.59;100.00;101855.43;5135241;56;1138844;-70
2023/01/22 04:31:10;;;;;;;14.20;7.10;;;;;;;0.61;100.00;101868.43;5117261;56;1136879;-68
2023/01/22 04:36:18;;;;;;;10.43;6.47;;;;;;;0.57;100.00;101861.54;5127521;55;1138817;-65
2023/01/22 04:41:26;;;;;;;11.48;7.08;;;;;;;0.59;100.00;101869.75;5039721;57;1147935;-67
2023/01/22 04:46:31;;;;;;;12.74;6.72;;;;;;;0.58;100.00;101863.27;5047731;57;1139076;-70
2023/01/22 04:51:37;;;;;;;8.58;6.17;;;;;;;0.57;100.00;101872.81;5189203;55;1254477;-74
2023/01/22 04:56:43;;;;;;;10.90;7.30;;;;;;;0.56;100.00;101876.73;5180518;55;1148156;-71
2023/01/22 05:01:51;;;;;;;9.57;6.67;;;;;;;0.56;100.00;101885.41;5200856;55;1138964;-73
2023/01/22 05:06:58;;;;;;;12.93;7.20;;;;;;;0.58;100.00;101885.39;5186609;55;1136664;-72
2023/01/22 05:12:04;;;;;;;14.13;8.77;;;;;;;0.57;100.00;101891.03;5188259;55;1240592;-71
2023/01/22 05:17:12;;;;;;;14.37;6.73;;;;;;;0.55;100.00;101901.91;5020742;57;1212807;-75
2023/01/22 05:22:18;;;;;;;17.00;9.03;;;;;;;0.54;100.00;101906.69;5108607;55;1138921;-77
2023/01/22 05:27:25;;;;;;;14.20;8.27;;;;;;;0.56;100.00;101912.73;5104724;55;1138804;-64
2023/01/22 05:32:36;;;;;;;12.00;7.58;;;;;;;0.60;100.00;101922.67;5129107;55;1139006;-68
2023/01/22 05:37:42;;;;;;;13.17;8.37;;;;;;;0.56;100.00;101923.59;5120916;55;1138868;-70
2023/01/22 05:42:48;;;;;;;16.97;8.67;;;;;;;0.55;100.00;101933.58;5024009;56;1138890;-73
2023/01/22 05:47:54;;;;;;;13.67;8.37;;;;;;;0.57;100.00;101933.12;5148926;55;1138898;-64
2023/01/22 05:53:17;;;;;;;15.95;8.60;;;;;;;0.58;100.00;101940.05;5166836;55;1138803;-72
2023/01/22 05:58:22;;;;;;;16.37;10.50;;;;;;;0.58;100.00;101938.75;5139367;55;1138788;-65
2023/01/22 06:03:28;;;;;;;12.88;7.37;;;;;;;0.58;100.00;101943.95;5099513;55;1142924;-78
2023/01/22 06:08:34;;;;;;;17.73;9.10;;;;;;;0.57;100.00;101948.74;5194616;55;1139102;-72
2023/01/22 06:13:41;;;;;;;20.43;10.25;;;;;;;0.56;100.00;101947.88;5131079;55;1138730;-70
2023/01/22 06:18:49;;;;;;;19.07;10.57;;;;;;;0.57;100.00;101959.16;5100403;56;1140864;-75
2023/01/22 06:23:56;;;;;;;20.48;9.98;;;;;;;0.58;100.00;101968.69;5104942;55;1141090;-75
2023/01/22 06:29:02;;;;;;;22.87;11.27;;;;;;;0.61;100.00;101969.95;5164168;55;1138869;-67
2023/01/22 06:34:09;;;;;;;22.97;10.43;;;;;;;0.63;100.00;101974.67;5074200;56;1140862;-67
2023/01/22 06:39:15;;;;;;;24.17;12.40;;;;;;;0.62;100.00;101984.23;5187370;55;1141092;-73
2023/01/22 06:44:23;;;;;;;22.40;11.23;;;;;;;0.63;100.00;101985.09;5037408;57;1188709;-68
2023/01/22 06:49:30;;;;;;;27.00;12.93;;;;;;;0.63;100.00;101991.16;5186455;55;1140809;-73
2023/01/22 06:54:36;;;;;;;25.05;12.70;;;;;;;0.63;100.00;101991.59;5116156;56;1140928;-69
2023/01/22 06:59:42;;;;;;;30.57;14.37;;;;;;;0.62;100.00;101995.08;5148142;55;1140788;-72
2023/01/22 07:04:48;;;;;;;28.70;14.53;;;;;;;0.62;100.00;102001.59;5136042;56;1141026;-74
2023/01/22 07:09:54;;;;;;;21.40;10.87;;;;;;;0.66;100.00;102010.66;5149067;55;1141054;-72
2023/01/22 07:15:00;;;;;;;30.80;14.83;;;;;;;0.67;100.00;102017.58;5109845;55;1140893;-68
2023/01/22 07:20:06;;;;;;;32.40;16.07;;;;;;;0.66;100.00;102011.09;5121617;55;1140733;-69
2023/01/22 07:25:12;;;;;;;30.50;14.33;;;;;;;0.62;100.00;102014.17;5077183;55;1140746;-74
2023/01/22 07:30:19;;;;;;;32.90;16.07;;;;;;;0.57;100.00;102019.03;5111119;56;1140913;-69
2023/01/22 07:35:26;;;;;;;36.98;15.90;;;;;;;0.52;100.00;102025.59;5076427;56;1141055;-68
2023/01/22 07:40:32;;;;;;;34.80;14.45;;;;;;;0.56;100.00;102030.32;5191689;55;1140909;-72
2023/01/22 07:45:37;;;;;;;34.35;15.03;;;;;;;0.56;100.00;102031.19;5119917;55;1140922;-72
2023/01/22 07:50:43;;;;;;;24.67;13.30;;;;;;;0.56;100.00;102045.50;5136978;56;1140895;-70
2023/01/22 07:55:49;;;;;;;32.13;13.77;;;;;;;0.61;100.00;102053.27;5157157;56;1141106;-71
2023/01/22 08:00:55;;;;;;;29.57;14.27;;;;;;;0.62;100.00;102062.77;5136852;56;1140813;-70
2023/01/22 08:06:01;;;;;;;21.67;9.97;;;;;;;0.60;100.00;102064.56;4998254;58;1140804;-73
2023/01/22 08:11:07;;;;;;;26.50;13.63;;;;;;;0.59;100.00;102066.73;5156672;56;1138846;-69
2023/01/22 08:16:13;;;;;;;32.42;14.38;;;;;;;0.59;100.00;102066.73;4997357;57;1141023;-77
2023/01/22 08:21:19;;;;;;;31.43;15.30;;;;;;;0.63;100.00;102077.08;5098351;55;1140986;-69
2023/01/22 08:26:25;;;;;;;23.50;10.13;;;;;;;0.59;100.00;102072.80;5097741;55;1140963;-67
2023/01/22 08:31:30;;;;;;;33.08;14.55;;;;;;;0.61;100.00;102081.91;5199010;55;1140920;-75
2023/01/22 08:36:37;;;;;;;29.57;15.13;;;;;;;0.58;100.00;102078.03;5148213;55;1141003;-71
2023/01/22 08:41:43;;;;;;;28.02;11.93;;;;;;;0.58;100.00;102088.00;5148358;55;1140763;-75
2023/01/22 08:46:48;;;;;;;27.97;13.23;;;;;;;0.59;100.00;102087.13;5190152;55;1140811;-68
2023/01/22 08:51:54;;;;;;;24.93;12.60;;;;;;;0.60;100.00;102090.59;5189104;55;1140825;-72
2023/01/22 08:57:00;;;;;;;30.57;14.85;;;;;;;0.58;100.00;102096.25;5071272;55;1140850;-72
2023/01/22 09:02:06;;;;;;;22.57;10.30;;;;;;;0.60;100.00;102094.05;5169086;55;1140854;-68
2023/01/22 09:07:12;;;;;;;36.73;17.70;;;;;;;0.65;100.00;102097.45;5095668;55;1140911;-78
2023/01/22 09:12:18;;;;;;;36.27;15.57;;;;;;;0.67;100.00;102108.71;5095628;55;1140936;-75
2023/01/22 09:17:26;;;;;;;33.07;15.83;;;;;;;0.68;100.00;102109.14;5116106;55;1141082;-74
2023/01/22 09:22:32;;;;;;;20.57;9.88;;;;;;;0.65;100.00;102115.67;5078523;56;1140969;-68
2023/01/22 09:27:38;;;;;;;27.27;14.50;;;;;;;0.67;100.00;102113.05;5035009;56;1138850;-69
2023/01/22 09:32:44;;;;;;;28.00;14.03;;;;;;;0.68;100.00;102113.48;5075844;56;1140956;-70
2023/01/22 09:37:50;;;;;;;42.73;17.33;;;;;;;0.67;100.00;102115.66;5096480;56;1140853;-71
2023/01/22 09:43:06;;;;;;;35.87;17.57;;;;;;;0.67;100.00;102113.05;5080669;56;1140761;-69
2023/01/22 09:48:16;;;;;;;30.03;14.67;;;;;;;0.73;100.00;102116.05;5161499;55;1140920;-71
2023/01/22 09:53:22;;;;;;;33.30;16.80;;;;;;;0.76;100.00;102120.78;5173697;55;1140828;-69
2023/01/22 09:58:28;;;;;;;36.37;18.67;;;;;;;0.76;100.00;102120.78;5181672;55;1140936;-71
2023/01/22 10:03:46;;;;;;;33.02;16.80;;;;;;;0.77;100.00;102112.50;5161179;55;1140828;-68
2023/01/22 10:09:18;;;;;;;32.33;16.17;;;;;;;0.79;100.00;102123.33;5142577;55;1140800;-67
2023/01/22 10:14:27;;;;;;;31.00;16.30;;;;;;;0.78;100.00;102115.53;5161556;55;1140861;-67
2023/01/22 10:19:45;;;;;;;29.23;15.18;;;;;;;0.79;100.00;102122.02;5176645;55;1140890;-65
2023/01/22 10:24:52;;;;;;;26.33;14.30;;;;;;;0.83;100.00;102125.46;5067781;55;1141104;-65
2023/01/22 10:30:01;;;;;;;33.30;15.80;;;;;;;0.80;100.00;102130.70;5126628;55;1141062;-72
2023/01/22 10:35:18;;;;;;;29.80;16.23;;;;;;;0.81;100.00;102125.48;5182107;55;1140924;-72
2023/01/22 10:40:36;;;;;;;44.97;22.43;;;;;;;0.83;100.00;102131.53;5091470;56;1140882;-69
2023/01/22 10:46:00;;;;;;;30.52;15.93;;;;;;;0.90;100.00;102132.34;5116182;56;1141092;-72
2023/01/22 10:51:18;;;;;;;29.30;14.47;;;;;;;0.87;100.00;102134.97;5178053;56;1141019;-71
2023/01/22 10:56:31;;;;;;;29.23;13.80;;;;;;;0.85;100.00;102140.63;5160411;56;1140821;-70
2023/01/22 11:01:46;;;;;;;28.43;13.97;;;;;;;0.82;100.00;102145.88;5160455;55;1140857;-71
2023/01/22 11:06:59;;;;;;;26.97;14.63;;;;;;;0.80;100.00;102141.98;5149874;56;1140830;-70
2023/01/22 11:12:31;;;;;;;35.68;16.57;;;;;;;0.81;100.00;102139.80;5115214;56;1141218;-70
2023/01/22 11:17:44;;;;;;;26.90;15.40;;;;;;;0.82;100.00;102143.27;5068828;56;1140838;-71
2023/01/22 11:23:13;;;;;;;25.30;13.83;;;;;;;0.80;100.00;102143.28;5085030;56;1141037;-68
2023/01/22 11:28:40;;;;;;;31.27;17.43;;;;;;;0.81;100.00;102145.45;5097018;56;1140771;-70
2023/01/22 11:34:05;;;;;;;28.98;14.30;;;;;;;0.76;100.00;102147.27;5120098;55;1140790;-70
2023/01/22 11:39:31;;;;;;;24.47;13.70;;;;;;;0.78;100.00;102152.84;5102666;56;1140909;-69
2023/01/22 11:45:07;;;;;;;32.37;16.97;;;;;;;0.80;100.00;102156.74;5010231;57;1141045;-73
2023/01/22 11:50:35;;;;;;;33.80;17.80;;;;;;;0.81;100.00;102150.22;5207874;55;1141233;-70
2023/01/22 11:56:02;;;;;;;41.73;19.93;;;;;;;0.80;100.00;102147.19;4846461;58;1141010;-70
2023/01/22 12:01:33;;;;;;;39.63;19.23;;;;;;;0.81;100.00;102141.54;4851421;57;1141140;-72
2023/01/22 12:07:11;;;;;;;34.00;16.87;;;;;;;0.81;100.00;102144.14;4858777;57;1141118;-70
2023/01/22 12:12:30;;;;;;;40.70;19.87;;;;;;;0.75;100.00;102145.09;4873062;59;1140993;-75
2023/01/22 12:18:20;;;;;;;35.25;19.85;;;;;;;0.73;100.00;102149.45;4678669;60;1140921;-74
2023/01/22 12:23:34;;;;;;;33.23;17.03;;;;;;;0.73;100.00;102143.38;4838454;59;1140945;-71
2023/01/22 12:28:49;;;;;;;40.15;18.25;;;;;;;0.78;100.00;102136.36;4857581;58;1140952;-75
2023/01/22 12:33:55;;;;;;;46.83;22.73;;;;;;;0.77;100.00;102142.45;5060992;55;1141076;-71
2023/01/22 12:39:29;;;;;;;45.57;21.80;;;;;;;0.76;100.00;102148.56;5125496;55;1140833;-72
2023/01/22 12:44:54;;;;;;;37.78;19.17;;;;;;;0.78;100.00;102147.64;5112306;55;1140910;-68
2023/01/22 12:50:00;;;;;;;32.80;18.43;;;;;;;0.79;100.00;102153.71;5140554;55;1140957;-75
2023/01/22 12:55:31;;;;;;;41.37;21.20;;;;;;;0.81;100.00;102154.12;5149071;55;1140989;-71
2023/01/22 13:00:38;;;;;;;36.77;17.40;;;;;;;0.81;100.00;102155.86;5105946;56;1140818;-71
2023/01/22 13:05:45;;;;;;;29.50;14.53;;;;;;;0.78;100.00;102159.36;5042304;57;1140852;-72
2023/01/22 13:11:05;;;;;;;31.73;16.10;;;;;;;0.77;100.00;102160.23;5219578;55;1141248;-70
2023/01/22 13:16:22;;;;;;;31.27;14.23;;;;;;;0.77;100.00;102163.28;5209548;55;1140981;-69
2023/01/22 13:21:33;;;;;;;30.77;17.33;;;;;;;0.79;100.00;102166.73;5178121;55;1140949;-74
2023/01/22 13:26:40;;;;;;;37.42;19.42;;;;;;;0.79;100.00;102169.34;5130062;56;1140975;-73
2023/01/22 13:32:17;;;;;;;30.85;16.40;;;;;;;0.77;100.00;102169.35;5149939;56;1140790;-75
2023/01/22 13:37:27;;;;;;;25.87;11.47;;;;;;;0.80;100.00;102180.18;5136684;55;1141042;-73
2023/01/22 13:42:35;;;;;;;29.70;16.33;;;;;;;0.79;100.00;102180.62;5127683;56;1141136;-70
2023/01/22 13:47:41;;;;;;;29.17;15.40;;;;;;;0.80;100.00;102181.48;5148073;56;1140863;-75
2023/01/22 13:52:49;;;;;;;32.83;15.83;;;;;;;0.83;100.00;102187.53;5127979;56;1140820;-76
2023/01/22 13:58:00;;;;;;;33.77;15.00;;;;;;;0.81;100.00;102193.19;5127807;55;1140939;-74
2023/01/22 14:03:13;;;;;;;28.00;13.63;;;;;;;0.80;100.00;102194.06;5147876;55;1140684;-71
2023/01/22 14:08:18;;;;;;;;;;;;;;;0.81;100.00;102201.00;5178645;55;1140899;-68
2023/01/22 14:13:24;;;;;;;36.33;17.80;;;;;;;0.83;100.00;102209.66;5203589;55;973998;-72
2023/01/22 14:18:30;;;;;;;50.88;24.57;;;;;;;0.86;100.00;102204.87;5161751;55;1138972;-71
2023/01/22 14:23:37;;;;;;;38.07;20.13;;;;;;;0.82;100.00;102209.23;5078273;56;1140896;-69
2023/01/22 14:28:44;;;;;;;27.27;15.27;;;;;;;0.78;100.00;102214.05;5042420;57;1140931;-69
2023/01/22 14:33:50;;;;;;;28.50;14.70;;;;;;;0.76;100.00;102217.13;5045444;56;1140806;-70
2023/01/22 14:38:59;;;;;;;21.43;11.27;;;;;;;0.76;100.00;102217.13;5062590;57;1140989;-72
2023/01/22 14:44:05;;;;;;;29.40;14.93;;;;;;;0.75;100.00;102219.31;5067473;56;1140865;-70
2023/01/22 14:49:11;;;;;;;28.47;15.67;;;;;;;0.74;100.00;102220.63;5127328;56;1140954;-72
2023/01/22 14:54:18;;;;;;;30.05;15.53;;;;;;;0.78;100.00;102228.38;5147001;56;1140833;-72
2023/01/22 14:59:24;;;;;;;24.37;12.47;;;;;;;0.76;100.00;102227.55;5126775;56;1140900;-73
2023/01/22 15:04:32;;;;;;;30.92;16.32;;;;;;;0.74;100.00;102234.52;5127400;56;1140875;-70
2023/01/22 15:09:39;;;;;;;23.98;11.60;;;;;;;0.75;100.00;102240.58;5149034;55;1140922;-72
2023/01/22 15:14:45;;;;;;;22.58;11.10;;;;;;;0.74;100.00;102238.86;5156311;55;1140793;-70
2023/01/22 15:19:51;;;;;;;33.02;16.17;;;;;;;0.76;100.00;102247.52;5067384;55;1141016;-73
2023/01/22 15:24:58;;;;;;;30.43;16.67;;;;;;;0.78;100.00;102250.50;5136313;56;1140880;-72
2023/01/22 15:30:05;;;;;;;35.07;15.83;;;;;;;0.80;100.00;102254.40;5093423;56;1140872;-69
2023/01/22 15:35:12;;;;;;;36.33;17.87;;;;;;;0.79;100.00;102266.56;5123433;56;1140848;-73
2023/01/22 15:40:20;;;;;;;34.25;16.35;;;;;;;0.83;100.00;102270.87;5118616;56;1140935;-75
2023/01/22 15:45:25;;;;;;;32.57;15.73;;;;;;;0.81;100.00;102269.16;5105335;56;1140813;-76
2023/01/22 15:50:32;;;;;;;38.08;19.27;;;;;;;0.78;100.00;102272.64;5102845;56;1141330;-69
2023/01/22 15:55:38;;;;;;;37.43;19.13;;;;;;;0.79;100.00;102265.70;5105657;56;1140925;-74
2023/01/22 16:00:45;;;;;;;40.73;17.75;;;;;;;0.83;100.00;102268.27;5135674;55;1140867;-74
2023/01/22 16:05:51;;;;;;;32.67;15.90;;;;;;;0.79;100.00;102273.07;5162391;56;1140821;-72
2023/01/22 16:10:57;;;;;;;32.57;16.97;;;;;;;0.80;100.00;102279.14;5154904;56;1140725;-73
2023/01/22 16:16:22;;;;;;;36.23;16.80;;;;;;;0.78;100.00;102286.97;5155573;56;1140790;-74
2023/01/22 16:21:29;;;;;;;56.50;22.53;;;;;;;0.78;100.00;102297.82;5104647;56;1140994;-69
2023/01/22 16:26:36;;;;;;;33.28;17.20;;;;;;;0.80;100.00;102303.88;5127610;56;1141001;-70
2023/01/22 16:31:44;;;;;;;60.95;31.80;;;;;;;0.80;100.00;102294.33;5161889;56;1140925;-69
2023/01/22 16:36:50;;;;;;;40.47;19.37;;;;;;;0.81;100.00;102304.31;5144588;56;1141066;-69
2023/01/22 16:41:57;;;;;;;54.20;26.40;;;;;;;0.82;100.00;102312.11;5152018;55;1141009;-73
2023/01/22 16:47:03;;;;;;;38.67;18.53;;;;;;;0.82;100.00;102316.45;5238799;55;1140803;-73
2023/01/22 16:52:11;;;;;;;36.60;17.83;;;;;;;0.80;100.00;102322.11;5162657;55;1140806;-71
2023/01/22 16:57:18;;;;;;;32.43;16.50;;;;;;;0.76;100.00;102325.20;5194701;55;1141061;-73
2023/01/22 17:02:25;;;;;;;33.70;17.20;;;;;;;0.77;100.00;102321.70;5172795;55;1141021;-70
2023/01/22 17:07:31;;;;;;;29.50;14.33;;;;;;;0.75;100.00;102319.57;5190230;55;1140901;-76
2023/01/22 17:12:38;;;;;;;31.13;16.10;;;;;;;0.77;100.00;102327.34;5182824;55;1141173;-76
2023/01/22 17:17:45;;;;;;;28.97;13.13;;;;;;;0.80;100.00;102326.02;5252316;54;1141022;-72
2023/01/22 17:22:52;;;;;;;33.55;18.85;;;;;;;0.83;100.00;102328.61;5292942;54;1140823;-73
2023/01/22 17:27:58;;;;;;;37.33;17.47;;;;;;;0.80;100.00;102328.19;5083482;57;1140860;-68
2023/01/22 17:33:04;;;;;;;26.90;13.43;;;;;;;0.79;100.00;102343.39;5184225;54;1140739;-69
2023/01/22 17:38:11;;;;;;;35.77;15.23;;;;;;;0.79;100.00;102352.94;5216158;54;1140811;-72
2023/01/22 17:43:18;;;;;;;184.37;49.03;;;;;;;0.79;100.00;102349.90;5260770;54;1140890;-70
2023/01/22 17:48:25;;;;;;;63.37;24.47;;;;;;;0.81;100.00;102352.49;5132378;55;1142986;-73
2023/01/22 17:53:34;;;;;;;34.65;18.45;;;;;;;0.83;100.00;102358.55;5203413;54;1140977;-70
2023/01/22 17:58:49;;;;;;;56.10;24.67;;;;;;;0.82;100.00;102365.94;5157320;55;1140880;-70
2023/01/22 18:04:01;;;;;;;203.23;63.67;;;;;;;0.81;100.00;102376.80;5125997;55;1141047;-74
2023/01/22 18:09:11;;;;;;;95.38;31.65;;;;;;;0.77;100.00;102381.59;5091270;56;1142838;-71
2023/01/22 18:14:24;;;;;;;140.93;45.43;;;;;;;0.83;100.00;102388.52;5112897;56;1140965;-70
2023/01/22 18:19:30;;;;;;;55.43;22.73;;;;;;;0.83;100.00;102396.33;5038039;55;1143055;-73
2023/01/22 18:24:38;;;;;;;37.13;17.70;;;;;;;0.85;100.00;102394.58;5035273;56;1140828;-70
2023/01/22 18:29:45;;;;;;;48.13;22.58;;;;;;;0.81;100.00;102402.84;5028487;56;1140831;-75
2023/01/22 18:34:52;;;;;;;36.47;17.43;;;;;;;0.84;100.00;102407.17;5024796;56;1140757;-73
2023/01/22 18:39:59;;;;;;;33.80;15.83;;;;;;;0.83;100.00;102406.30;5024579;56;1140775;-69
2023/01/22 18:45:07;;;;;;;40.63;22.60;;;;;;;0.84;100.00;102412.38;5086265;55;1140777;-71
2023/01/22 18:50:15;;;;;;;30.37;15.80;;;;;;;0.80;100.00;102413.27;5108823;55;1140917;-65
2023/01/22 18:55:22;;;;;;;28.90;16.47;;;;;;;0.76;100.00;102407.24;5108429;55;1141014;-71
2023/01/22 19:00:29;;;;;;;29.23;16.57;;;;;;;0.76;100.00;102414.19;5099351;55;1141018;-70
2023/01/22 19:05:39;;;;;;;33.07;16.43;;;;;;;0.77;100.00;102415.45;5124652;56;1140993;-70
2023/01/22 19:10:45;;;;;;;31.10;16.93;;;;;;;0.76;100.00;102415.05;5106283;55;1140982;-70
2023/01/22 19:15:52;;;;;;;24.40;13.43;;;;;;;0.75;100.00;102418.97;5108223;55;1140852;-69
2023/01/22 19:21:11;;;;;;;29.13;16.20;;;;;;;0.76;100.00;102422.87;5128655;55;1140828;-70
2023/01/22 19:26:30;;;;;;;36.93;15.80;;;;;;;0.72;100.00;102421.15;5096880;55;1140992;-70
2023/01/22 19:31:50;;;;;;;36.27;17.10;;;;;;;0.72;100.00;102424.19;5091448;55;1140855;-71
2023/01/22 19:36:57;;;;;;;36.30;17.37;;;;;;;0.73;100.00;102433.30;5036184;54;1141077;-71
2023/01/22 19:42:05;;;;;;;20.10;10.90;;;;;;;0.66;100.00;102428.55;5078879;55;1140869;-69
2023/01/22 19:47:13;;;;;;;29.23;16.37;;;;;;;0.68;100.00;102437.22;5034432;56;1140867;-75
2023/01/22 19:52:20;;;;;;;26.50;13.77;;;;;;;0.71;100.00;102449.37;5073593;55;1140895;-72
2023/01/22 19:57:28;;;;;;;29.47;16.30;;;;;;;0.71;100.00;102455.88;5057996;55;1141195;-67
2023/01/22 20:02:35;;;;;;;31.47;15.83;;;;;;;0.70;100.00;102453.70;5044755;56;1141003;-70
2023/01/22 20:07:44;;;;;;;34.03;16.47;;;;;;;0.67;100.00;102451.55;5056875;56;1143934;-72
2023/01/22 20:12:53;;;;;;;29.05;16.27;;;;;;;0.67;100.00;102454.16;5108806;56;1140953;-74
2023/01/22 20:17:59;;;;;;;25.73;14.67;;;;;;;0.65;100.00;102450.25;5124241;55;1141043;-69
2023/01/22 20:23:06;;;;;;;23.50;12.40;;;;;;;0.61;100.00;102452.44;5087754;55;1141002;-69
2023/01/22 20:28:15;;;;;;;30.13;14.50;;;;;;;0.66;100.00;102452.42;5087558;55;1140978;-72
2023/01/22 20:33:21;;;;;;;23.87;13.83;;;;;;;0.58;100.00;102442.07;5119024;55;1140939;-68
2023/01/22 20:38:29;;;;;;;28.50;14.97;;;;;;;0.61;100.00;102460.72;5184712;55;1140966;-72
2023/01/22 20:43:38;;;;;;;25.73;14.00;;;;;;;0.64;100.00;102468.48;5129557;55;1140992;-73
2023/01/22 20:48:45;;;;;;;22.20;12.33;;;;;;;0.64;100.00;102473.26;5096991;56;1140773;-69
2023/01/22 20:53:53;;;;;;;25.37;12.60;;;;;;;0.62;100.00;102475.00;5136077;55;1140918;-67
2023/01/22 20:59:08;;;;;;;24.77;13.97;;;;;;;0.60;100.00;102476.78;5086099;55;1141037;-71
2023/01/22 21:04:16;;;;;;;25.07;14.07;;;;;;;0.60;100.00;102478.08;5103604;55;1140966;-71
2023/01/22 21:09:23;;;;;;;30.27;15.43;;;;;;;0.64;100.00;102484.11;5061157;56;1159255;-69
2023/01/22 21:14:30;;;;;;;27.33;15.43;;;;;;;0.63;100.00;102487.58;5013586;56;1140831;-71
2023/01/22 21:19:37;;;;;;;29.85;16.07;;;;;;;0.63;100.00;102492.35;5132090;55;1140830;-73
2023/01/22 21:24:45;;;;;;;29.87;15.13;;;;;;;0.66;100.00;102496.69;5203416;55;1140792;-69
2023/01/22 21:29:51;;;;;;;31.73;15.80;;;;;;;0.62;100.00;102495.83;5183088;55;1140723;-73
2023/01/22 21:34:58;;;;;;;21.12;11.63;;;;;;;0.57;100.00;102491.10;5194913;54;1140944;-69
2023/01/22 21:40:07;;;;;;;30.10;13.30;;;;;;;0.56;100.00;102485.90;5214985;55;1141117;-72
2023/01/22 21:50:42;;;;;;;23.05;12.37;;;;;;;0.53;100.00;102488.52;5130740;54;1140971;-72
2023/01/22 21:55:52;;;;;;;29.92;14.55;;;;;;;0.53;100.00;102488.52;5089190;56;1141011;-73
2023/01/22 22:01:06;;;;;;;27.02;13.45;;;;;;;0.53;100.00;102501.09;5147753;55;1141160;-72
2023/01/22 22:06:13;;;;;;;25.90;13.87;;;;;;;0.54;100.00;102508.03;5184101;55;1140768;-70
2023/01/22 22:11:20;;;;;;;26.07;14.13;;;;;;;0.51;100.00;102511.95;5184478;55;1140938;-69
2023/01/22 22:16:26;;;;;;;31.97;13.93;;;;;;;0.52;100.00;102512.81;5222088;54;1141059;-69
2023/01/22 22:21:32;;;;;;;23.07;12.00;;;;;;;0.52;100.00;102513.68;5253843;54;1141099;-71
2023/01/22 22:26:39;;;;;;;25.90;13.93;;;;;;;0.53;100.00;102506.73;5184726;55;1141082;-71
2023/01/22 22:31:44;;;;;;;24.27;12.83;;;;;;;0.56;100.00;102519.31;5148691;54;1140889;-70
2023/01/22 22:36:50;;;;;;;28.47;14.20;;;;;;;0.58;100.00;102533.19;5019632;57;1140880;-72
2023/01/22 22:41:56;;;;;;;28.93;15.00;;;;;;;0.57;100.00;102535.36;5095989;56;1140960;-71
2023/01/22 22:47:02;;;;;;;26.63;14.63;;;;;;;0.59;100.00;102536.66;5094928;54;1140958;-69
2023/01/22 22:52:07;;;;;;;26.73;14.37;;;;;;;0.57;100.00;102544.48;5157666;55;1141026;-69
2023/01/22 22:57:14;;;;;;;25.90;14.20;;;;;;;0.59;100.00;102536.23;5182356;55;1141025;-69
2023/01/22 23:02:21;;;;;;;28.43;14.67;;;;;;;0.55;100.00;102543.61;5182295;55;1140941;-71
2023/01/22 23:07:26;;;;;;;23.73;13.10;;;;;;;0.56;100.00;102554.89;5142811;55;1140938;-72
2023/01/22 23:12:33;;;;;;;28.53;12.93;;;;;;;0.54;100.00;102547.52;5149056;55;1140873;-70
2023/01/22 23:17:38;;;;;;;23.40;12.97;;;;;;;0.53;100.00;102559.67;5212967;54;1140833;-72